Terminal Aerodrome Forecast
Issued by NWS

Home | Current Version | Previous Version | Text Only | Print | Product List | Glossary On
Versions: 1 2 3 4 5 6 7 8 9 10 11 12 13 14 15 16 17
080
FTUS44 KCRP 241010 AAA
TAFALI
TAF AMD
KALI 241010Z 2410/2506 12005KT 5SM BR SCT015
     FM241100 11003KT 3SM BR SCT012
      TEMPO 2411/2414 2SM BR BKN012
     FM241400 14008KT P6SM SCT025 BKN040
     FM241700 12013G19KT P6SM VCSH SCT025 BKN035
     FM250000 13011KT P6SM BKN050
      AMD NOT SKED=

USA.gov is the U.S. government's official web portal to all federal, state and local government web resources and services.